sensor_id;sensor_type;location;lat;lon;timestamp;pressure;altitude;pressure_sealevel;temperature;humidity
72118;BME280;59992;47.490;8.736;2023-03-14T00:01:45;95422.28;;;9.22;93.69
72118;BME280;59992;47.490;8.736;2023-03-14T00:04:33;95417.59;;;9.18;93.16
72118;BME280;59992;47.490;8.736;2023-03-14T00:07:22;95409.82;;;9.14;94.10
72118;BME280;59992;47.490;8.736;2023-03-14T00:10:14;95414.20;;;9.13;93.54
72118;BME280;59992;47.490;8.736;2023-03-14T00:13:02;95428.26;;;9.13;94.27
72118;BME280;59992;47.490;8.736;2023-03-14T00:15:50;95443.42;;;9.06;94.57
72118;BME280;59992;47.490;8.736;2023-03-14T00:18:39;95452.11;;;9.06;92.99
72118;BME280;59992;47.490;8.736;2023-03-14T00:21:28;95446.98;;;9.02;92.69
72118;BME280;59992;47.490;8.736;2023-03-14T00:24:16;95431.48;;;9.02;92.79
72118;BME280;59992;47.490;8.736;2023-03-14T00:27:04;95424.77;;;9.03;91.14
72118;BME280;59992;47.490;8.736;2023-03-14T00:29:52;95418.57;;;9.00;91.19
72118;BME280;59992;47.490;8.736;2023-03-14T00:32:40;95397.13;;;8.95;91.64
72118;BME280;59992;47.490;8.736;2023-03-14T00:35:29;95350.77;;;8.87;91.83
72118;BME280;59992;47.490;8.736;2023-03-14T00:38:17;95314.23;;;8.74;93.71
72118;BME280;59992;47.490;8.736;2023-03-14T00:41:06;95301.93;;;8.66;93.97
72118;BME280;59992;47.490;8.736;2023-03-14T00:43:55;95307.59;;;8.63;93.43
72118;BME280;59992;47.490;8.736;2023-03-14T00:46:43;95285.71;;;8.59;92.61
72118;BME280;59992;47.490;8.736;2023-03-14T00:49:31;95285.33;;;8.54;93.54
72118;BME280;59992;47.490;8.736;2023-03-14T00:52:19;95279.89;;;8.52;94.22
72118;BME280;59992;47.490;8.736;2023-03-14T00:55:08;95281.79;;;8.50;92.77
72118;BME280;59992;47.490;8.736;2023-03-14T00:57:57;95277.92;;;8.41;93.12
72118;BME280;59992;47.490;8.736;2023-03-14T01:00:45;95269.02;;;8.35;92.69
72118;BME280;59992;47.490;8.736;2023-03-14T01:03:33;95272.88;;;8.32;92.76
72118;BME280;59992;47.490;8.736;2023-03-14T01:06:23;95278.39;;;8.33;91.35
72118;BME280;59992;47.490;8.736;2023-03-14T01:09:12;95284.79;;;8.30;91.35
72118;BME280;59992;47.490;8.736;2023-03-14T01:12:00;95292.77;;;8.28;91.54
72118;BME280;59992;47.490;8.736;2023-03-14T01:14:48;95297.38;;;8.26;92.32
72118;BME280;59992;47.490;8.736;2023-03-14T01:17:36;95304.90;;;8.23;92.68
72118;BME280;59992;47.490;8.736;2023-03-14T01:20:27;95304.65;;;8.11;93.21
72118;BME280;59992;47.490;8.736;2023-03-14T01:23:15;95304.72;;;8.10;92.56
72118;BME280;59992;47.490;8.736;2023-03-14T01:26:04;95308.41;;;8.13;92.31
72118;BME280;59992;47.490;8.736;2023-03-14T01:28:54;95305.85;;;8.12;92.18
72118;BME280;59992;47.490;8.736;2023-03-14T01:31:42;95305.92;;;8.10;93.03
72118;BME280;59992;47.490;8.736;2023-03-14T01:34:30;95302.67;;;8.07;93.38
72118;BME280;59992;47.490;8.736;2023-03-14T01:37:18;95290.29;;;7.99;93.62
72118;BME280;59992;47.490;8.736;2023-03-14T01:40:11;95283.21;;;8.04;92.74
72118;BME280;59992;47.490;8.736;2023-03-14T01:43:12;95274.39;;;8.04;92.26
72118;BME280;59992;47.490;8.736;2023-03-14T01:46:24;95264.21;;;8.02;91.35
72118;BME280;59992;47.490;8.736;2023-03-14T01:49:25;95258.41;;;8.03;91.76
72118;BME280;59992;47.490;8.736;2023-03-14T01:52:17;95252.98;;;8.04;90.82
72118;BME280;59992;47.490;8.736;2023-03-14T01:55:11;95251.16;;;8.01;90.74
72118;BME280;59992;47.490;8.736;2023-03-14T01:58:02;95246.86;;;8.00;89.72
72118;BME280;59992;47.490;8.736;2023-03-14T02:00:51;95237.37;;;7.98;90.43
72118;BME280;59992;47.490;8.736;2023-03-14T02:03:45;95225.22;;;7.98;89.16
72118;BME280;59992;47.490;8.736;2023-03-14T02:06:42;95212.48;;;7.93;88.59
72118;BME280;59992;47.490;8.736;2023-03-14T02:09:32;95207.44;;;7.96;89.10
72118;BME280;59992;47.490;8.736;2023-03-14T02:12:20;95200.05;;;7.90;88.11
72118;BME280;59992;47.490;8.736;2023-03-14T02:15:10;95200.65;;;7.93;88.23
72118;BME280;59992;47.490;8.736;2023-03-14T02:17:59;95204.34;;;7.93;87.65
72118;BME280;59992;47.490;8.736;2023-03-14T02:20:53;95196.50;;;7.91;87.65
72118;BME280;59992;47.490;8.736;2023-03-14T02:23:51;95196.79;;;7.90;87.39
72118;BME280;59992;47.490;8.736;2023-03-14T02:29:34;95187.52;;;7.86;87.81
72118;BME280;59992;47.490;8.736;2023-03-14T02:32:26;95191.35;;;7.84;88.50
72118;BME280;59992;47.490;8.736;2023-03-14T02:35:20;95184.66;;;7.84;86.34
72118;BME280;59992;47.490;8.736;2023-03-14T02:38:13;95186.54;;;7.83;87.59
72118;BME280;59992;47.490;8.736;2023-03-14T02:41:04;95181.18;;;7.80;86.24
72118;BME280;59992;47.490;8.736;2023-03-14T02:43:53;95180.51;;;7.82;86.45
72118;BME280;59992;47.490;8.736;2023-03-14T02:46:41;95171.84;;;7.80;86.38
72118;BME280;59992;47.490;8.736;2023-03-14T02:49:32;95167.08;;;7.80;86.78
72118;BME280;59992;47.490;8.736;2023-03-14T02:52:21;95162.48;;;7.81;86.42
72118;BME280;59992;47.490;8.736;2023-03-14T02:55:09;95158.59;;;7.82;85.71
72118;BME280;59992;47.490;8.736;2023-03-14T02:57:57;95156.46;;;7.82;86.19
72118;BME280;59992;47.490;8.736;2023-03-14T03:00:45;95152.70;;;7.82;85.45
72118;BME280;59992;47.490;8.736;2023-03-14T03:03:33;95145.55;;;7.81;86.13
72118;BME280;59992;47.490;8.736;2023-03-14T03:06:22;95149.90;;;7.81;85.57
72118;BME280;59992;47.490;8.736;2023-03-14T03:09:10;95154.58;;;7.76;85.87
72118;BME280;59992;47.490;8.736;2023-03-14T03:11:58;95149.30;;;7.72;85.71
72118;BME280;59992;47.490;8.736;2023-03-14T03:14:46;95156.32;;;7.76;85.79
72118;BME280;59992;47.490;8.736;2023-03-14T03:17:34;95160.61;;;7.76;85.23
72118;BME280;59992;47.490;8.736;2023-03-14T03:20:22;95151.27;;;7.75;84.60
72118;BME280;59992;47.490;8.736;2023-03-14T03:23:10;95151.64;;;7.75;85.83
72118;BME280;59992;47.490;8.736;2023-03-14T03:25:58;95147.88;;;7.73;86.50
72118;BME280;59992;47.490;8.736;2023-03-14T03:28:47;95145.08;;;7.70;85.51
72118;BME280;59992;47.490;8.736;2023-03-14T03:31:38;95138.14;;;7.70;86.08
72118;BME280;59992;47.490;8.736;2023-03-14T03:34:28;95138.60;;;7.71;85.85
72118;BME280;59992;47.490;8.736;2023-03-14T03:37:16;95132.57;;;7.69;85.48
72118;BME280;59992;47.490;8.736;2023-03-14T03:40:06;95129.10;;;7.70;85.06
72118;BME280;59992;47.490;8.736;2023-03-14T03:42:54;95126.16;;;7.70;86.78
72118;BME280;59992;47.490;8.736;2023-03-14T03:45:42;95123.45;;;7.72;86.42
72118;BME280;59992;47.490;8.736;2023-03-14T03:48:30;95125.56;;;7.72;85.99
72118;BME280;59992;47.490;8.736;2023-03-14T03:51:18;95130.92;;;7.72;85.84
72118;BME280;59992;47.490;8.736;2023-03-14T03:54:06;95128.41;;;7.71;86.29
72118;BME280;59992;47.490;8.736;2023-03-14T03:56:54;95121.19;;;7.71;85.36
72118;BME280;59992;47.490;8.736;2023-03-14T03:59:42;95122.23;;;7.69;86.17
72118;BME280;59992;47.490;8.736;2023-03-14T04:02:31;95107.10;;;7.71;85.80
72118;BME280;59992;47.490;8.736;2023-03-14T04:05:19;95097.77;;;7.71;84.67
72118;BME280;59992;47.490;8.736;2023-03-14T04:08:07;95090.98;;;7.70;84.67
72118;BME280;59992;47.490;8.736;2023-03-14T04:10:56;95091.73;;;7.67;86.09
72118;BME280;59992;47.490;8.736;2023-03-14T04:13:45;95085.10;;;7.69;85.80
72118;BME280;59992;47.490;8.736;2023-03-14T04:16:33;95081.19;;;7.68;85.54
72118;BME280;59992;47.490;8.736;2023-03-14T04:19:21;95077.27;;;7.69;84.67
72118;BME280;59992;47.490;8.736;2023-03-14T04:22:09;95067.69;;;7.67;85.24
72118;BME280;59992;47.490;8.736;2023-03-14T04:24:58;95066.48;;;7.68;84.72
72118;BME280;59992;47.490;8.736;2023-03-14T04:27:46;95072.36;;;7.69;83.85
72118;BME280;59992;47.490;8.736;2023-03-14T04:30:35;95072.97;;;7.71;83.93
72118;BME280;59992;47.490;8.736;2023-03-14T04:33:23;95076.52;;;7.71;83.09
72118;BME280;59992;47.490;8.736;2023-03-14T04:36:12;95074.55;;;7.71;83.62
72118;BME280;59992;47.490;8.736;2023-03-14T04:39:00;95070.48;;;7.71;83.60
72118;BME280;59992;47.490;8.736;2023-03-14T04:41:48;95071.46;;;7.70;83.33
72118;BME280;59992;47.490;8.736;2023-03-14T04:44:36;95075.53;;;7.67;82.80
72118;BME280;59992;47.490;8.736;2023-03-14T04:47:25;95067.84;;;7.65;83.64
72118;BME280;59992;47.490;8.736;2023-03-14T04:50:13;95055.86;;;7.62;84.47
72118;BME280;59992;47.490;8.736;2023-03-14T04:53:01;95042.02;;;7.56;84.46
72118;BME280;59992;47.490;8.736;2023-03-14T04:55:50;95033.27;;;7.55;85.21
72118;BME280;59992;47.490;8.736;2023-03-14T04:58:39;95037.94;;;7.47;85.23
72118;BME280;59992;47.490;8.736;2023-03-14T05:01:27;95020.98;;;7.41;84.32
72118;BME280;59992;47.490;8.736;2023-03-14T05:04:15;95008.27;;;7.39;84.70
72118;BME280;59992;47.490;8.736;2023-03-14T05:07:03;94996.23;;;7.32;84.51
72118;BME280;59992;47.490;8.736;2023-03-14T05:09:51;94985.83;;;7.32;84.32
72118;BME280;59992;47.490;8.736;2023-03-14T05:12:40;94989.73;;;7.32;84.06
72118;BME280;59992;47.490;8.736;2023-03-14T05:15:28;94974.98;;;7.26;84.11
72118;BME280;59992;47.490;8.736;2023-03-14T05:18:16;94974.77;;;7.32;83.90
72118;BME280;59992;47.490;8.736;2023-03-14T05:21:05;94977.54;;;7.29;83.97
72118;BME280;59992;47.490;8.736;2023-03-14T05:23:53;94976.27;;;7.33;83.44
72118;BME280;59992;47.490;8.736;2023-03-14T05:26:42;94974.45;;;7.33;83.08
72118;BME280;59992;47.490;8.736;2023-03-14T05:29:30;94977.31;;;7.35;83.15
72118;BME280;59992;47.490;8.736;2023-03-14T05:32:19;94977.70;;;7.34;82.72
72118;BME280;59992;47.490;8.736;2023-03-14T05:35:08;94981.23;;;7.32;83.22
72118;BME280;59992;47.490;8.736;2023-03-14T05:37:56;94975.20;;;7.32;83.28
72118;BME280;59992;47.490;8.736;2023-03-14T05:40:45;94962.03;;;7.32;82.97
72118;BME280;59992;47.490;8.736;2023-03-14T05:43:34;94949.38;;;7.29;82.56
72118;BME280;59992;47.490;8.736;2023-03-14T05:46:22;94945.98;;;7.27;82.89
72118;BME280;59992;47.490;8.736;2023-03-14T05:49:10;94951.72;;;7.23;83.10
72118;BME280;59992;47.490;8.736;2023-03-14T05:51:58;94947.57;;;7.21;82.19
72118;BME280;59992;47.490;8.736;2023-03-14T05:54:46;94945.61;;;7.26;81.47
72118;BME280;59992;47.490;8.736;2023-03-14T05:57:34;94938.30;;;7.28;81.39
72118;BME280;59992;47.490;8.736;2023-03-14T06:00:23;94931.30;;;7.30;80.76
72118;BME280;59992;47.490;8.736;2023-03-14T06:03:11;94929.27;;;7.31;80.94
72118;BME280;59992;47.490;8.736;2023-03-14T06:05:59;94927.02;;;7.31;81.00
72118;BME280;59992;47.490;8.736;2023-03-14T06:08:47;94917.91;;;7.33;80.55
72118;BME280;59992;47.490;8.736;2023-03-14T06:11:35;94907.43;;;7.33;80.43
72118;BME280;59992;47.490;8.736;2023-03-14T06:14:24;94903.89;;;7.34;80.50
72118;BME280;59992;47.490;8.736;2023-03-14T06:17:12;94903.29;;;7.35;80.75
72118;BME280;59992;47.490;8.736;2023-03-14T06:20:00;94907.21;;;7.31;81.82
72118;BME280;59992;47.490;8.736;2023-03-14T06:22:49;94914.14;;;7.32;80.47
72118;BME280;59992;47.490;8.736;2023-03-14T06:25:37;94922.19;;;7.34;81.04
72118;BME280;59992;47.490;8.736;2023-03-14T06:28:26;94928.43;;;7.35;80.95
72118;BME280;59992;47.490;8.736;2023-03-14T06:31:14;94937.10;;;7.31;82.13
72118;BME280;59992;47.490;8.736;2023-03-14T06:34:03;94938.91;;;7.30;81.61
72118;BME280;59992;47.490;8.736;2023-03-14T06:36:51;94946.21;;;7.27;82.54
72118;BME280;59992;47.490;8.736;2023-03-14T06:39:39;94945.39;;;7.25;84.48
72118;BME280;59992;47.490;8.736;2023-03-14T06:42:28;94937.40;;;7.20;84.63
72118;BME280;59992;47.490;8.736;2023-03-14T06:45:17;94935.90;;;7.18;85.15
72118;BME280;59992;47.490;8.736;2023-03-14T06:48:06;94931.30;;;7.18;83.81
72118;BME280;59992;47.490;8.736;2023-03-14T06:50:54;94934.77;;;7.19;83.98
72118;BME280;59992;47.490;8.736;2023-03-14T06:53:42;94944.10;;;7.22;84.24
72118;BME280;59992;47.490;8.736;2023-03-14T06:56:30;94949.08;;;7.21;83.84
72118;BME280;59992;47.490;8.736;2023-03-14T06:59:18;94952.09;;;7.20;84.18
72118;BME280;59992;47.490;8.736;2023-03-14T07:02:11;94955.33;;;7.21;84.72
72118;BME280;59992;47.490;8.736;2023-03-14T07:04:59;94963.67;;;7.28;84.78
72118;BME280;59992;47.490;8.736;2023-03-14T07:07:48;94973.46;;;7.46;84.81
72118;BME280;59992;47.490;8.736;2023-03-14T07:10:36;94974.20;;;7.66;83.57
72118;BME280;59992;47.490;8.736;2023-03-14T07:13:24;94987.48;;;7.84;83.68
72118;BME280;59992;47.490;8.736;2023-03-14T07:16:13;94994.99;;;8.03;83.71
72118;BME280;59992;47.490;8.736;2023-03-14T07:19:01;95004.81;;;8.25;82.69
72118;BME280;59992;47.490;8.736;2023-03-14T07:21:50;95004.48;;;8.38;82.21
72118;BME280;59992;47.490;8.736;2023-03-14T07:24:38;95005.30;;;8.56;81.68
72118;BME280;59992;47.490;8.736;2023-03-14T07:27:27;95003.06;;;8.81;81.43
72118;BME280;59992;47.490;8.736;2023-03-14T07:30:15;95001.05;;;9.04;80.15
72118;BME280;59992;47.490;8.736;2023-03-14T07:33:03;95001.13;;;9.34;78.09
72118;BME280;59992;47.490;8.736;2023-03-14T07:35:52;95006.61;;;9.74;77.25
72118;BME280;59992;47.490;8.736;2023-03-14T07:38:40;95008.27;;;9.98;75.19
72118;BME280;59992;47.490;8.736;2023-03-14T07:41:29;95008.44;;;10.04;72.53
72118;BME280;59992;47.490;8.736;2023-03-14T07:44:17;95006.32;;;9.90;70.30
72118;BME280;59992;47.490;8.736;2023-03-14T07:47:05;95004.48;;;9.84;69.62
72118;BME280;59992;47.490;8.736;2023-03-14T07:49:54;95009.48;;;9.99;70.72
72118;BME280;59992;47.490;8.736;2023-03-14T07:52:42;95013.02;;;10.17;71.64
72118;BME280;59992;47.490;8.736;2023-03-14T07:55:30;95012.65;;;10.31;69.77
72118;BME280;59992;47.490;8.736;2023-03-14T07:58:18;95020.17;;;10.42;70.85
72118;BME280;59992;47.490;8.736;2023-03-14T08:01:07;95021.29;;;10.56;69.44
72118;BME280;59992;47.490;8.736;2023-03-14T08:03:55;95025.52;;;10.70;68.56
72118;BME280;59992;47.490;8.736;2023-03-14T08:06:43;95019.68;;;10.82;67.93
72118;BME280;59992;47.490;8.736;2023-03-14T08:09:31;95030.84;;;10.92;67.43
72118;BME280;59992;47.490;8.736;2023-03-14T08:12:20;95019.46;;;10.76;67.13
72118;BME280;59992;47.490;8.736;2023-03-14T08:15:10;95021.74;;;10.75;67.39
72118;BME280;59992;47.490;8.736;2023-03-14T08:17:58;95016.60;;;10.80;67.61
72118;BME280;59992;47.490;8.736;2023-03-14T08:20:47;95017.11;;;10.76;66.43
72118;BME280;59992;47.490;8.736;2023-03-14T08:23:35;95014.04;;;10.79;66.03
72118;BME280;59992;47.490;8.736;2023-03-14T08:26:23;95013.16;;;10.76;65.59
72118;BME280;59992;47.490;8.736;2023-03-14T08:29:11;95014.66;;;10.59;65.67
72118;BME280;59992;47.490;8.736;2023-03-14T08:32:00;95017.29;;;10.62;66.24
72118;BME280;59992;47.490;8.736;2023-03-14T08:34:48;95016.52;;;10.62;66.27
72118;BME280;59992;47.490;8.736;2023-03-14T08:37:36;95008.89;;;10.68;65.12
72118;BME280;59992;47.490;8.736;2023-03-14T08:40:24;95021.77;;;10.84;66.12
72118;BME280;59992;47.490;8.736;2023-03-14T08:43:13;95016.99;;;10.79;65.76
72118;BME280;59992;47.490;8.736;2023-03-14T08:46:02;95023.33;;;10.98;65.94
72118;BME280;59992;47.490;8.736;2023-03-14T08:48:50;95016.67;;;11.09;67.11
72118;BME280;59992;47.490;8.736;2023-03-14T08:51:38;95014.84;;;11.20;66.14
72118;BME280;59992;47.490;8.736;2023-03-14T08:54:26;95013.30;;;11.31;65.18
72118;BME280;59992;47.490;8.736;2023-03-14T08:57:15;95013.77;;;11.40;65.03
72118;BME280;59992;47.490;8.736;2023-03-14T09:00:04;95020.61;;;11.39;65.15
72118;BME280;59992;47.490;8.736;2023-03-14T09:02:57;95024.63;;;11.50;65.69
72118;BME280;59992;47.490;8.736;2023-03-14T09:05:45;95027.61;;;11.63;65.09
72118;BME280;59992;47.490;8.736;2023-03-14T09:08:34;95035.70;;;11.59;64.27
72118;BME280;59992;47.490;8.736;2023-03-14T09:11:22;95033.45;;;11.52;64.45
72118;BME280;59992;47.490;8.736;2023-03-14T09:14:10;95032.80;;;11.66;63.89
72118;BME280;59992;47.490;8.736;2023-03-14T09:16:58;95037.56;;;11.56;63.91
72118;BME280;59992;47.490;8.736;2023-03-14T09:19:46;95036.31;;;11.58;64.70
72118;BME280;59992;47.490;8.736;2023-03-14T09:22:35;95035.88;;;11.58;64.81
72118;BME280;59992;47.490;8.736;2023-03-14T09:25:23;95038.66;;;11.64;64.35
72118;BME280;59992;47.490;8.736;2023-03-14T09:28:11;95036.87;;;11.52;64.34
72118;BME280;59992;47.490;8.736;2023-03-14T09:31:05;95036.27;;;11.61;64.07
72118;BME280;59992;47.490;8.736;2023-03-14T09:33:54;95032.32;;;11.67;64.07
72118;BME280;59992;47.490;8.736;2023-03-14T09:36:42;95031.15;;;11.80;62.34
72118;BME280;59992;47.490;8.736;2023-03-14T09:39:32;95035.20;;;11.82;62.98
72118;BME280;59992;47.490;8.736;2023-03-14T09:42:22;95042.04;;;12.00;62.70
72118;BME280;59992;47.490;8.736;2023-03-14T09:45:15;95055.04;;;12.03;63.01
72118;BME280;59992;47.490;8.736;2023-03-14T09:48:06;95059.80;;;11.86;63.20
72118;BME280;59992;47.490;8.736;2023-03-14T09:51:03;95057.85;;;11.89;63.66
72118;BME280;59992;47.490;8.736;2023-03-14T09:53:52;95062.54;;;11.99;62.81
72118;BME280;59992;47.490;8.736;2023-03-14T09:56:41;95058.21;;;11.95;63.80
72118;BME280;59992;47.490;8.736;2023-03-14T09:59:29;95065.95;;;11.95;63.26
72118;BME280;59992;47.490;8.736;2023-03-14T10:02:20;95068.40;;;11.88;63.51
72118;BME280;59992;47.490;8.736;2023-03-14T10:05:15;95078.05;;;11.87;63.87
72118;BME280;59992;47.490;8.736;2023-03-14T10:08:04;95086.66;;;11.99;64.29
72118;BME280;59992;47.490;8.736;2023-03-14T10:10:53;95087.63;;;11.91;64.99
72118;BME280;59992;47.490;8.736;2023-03-14T10:13:50;95077.79;;;11.64;66.41
72118;BME280;59992;47.490;8.736;2023-03-14T10:16:49;95097.64;;;11.44;67.45
72118;BME280;59992;47.490;8.736;2023-03-14T10:19:37;95101.52;;;11.38;67.40
72118;BME280;59992;47.490;8.736;2023-03-14T10:22:38;95101.45;;;11.15;68.53
72118;BME280;59992;47.490;8.736;2023-03-14T10:25:28;95107.27;;;11.17;68.27
72118;BME280;59992;47.490;8.736;2023-03-14T10:28:26;95113.80;;;11.21;68.00
72118;BME280;59992;47.490;8.736;2023-03-14T10:31:14;95125.21;;;10.99;70.05
72118;BME280;59992;47.490;8.736;2023-03-14T10:34:04;95131.02;;;10.74;72.69
72118;BME280;59992;47.490;8.736;2023-03-14T10:36:55;95129.89;;;10.45;73.93
72118;BME280;59992;47.490;8.736;2023-03-14T10:39:46;95137.80;;;10.32;75.90
72118;BME280;59992;47.490;8.736;2023-03-14T10:42:39;95145.63;;;10.09;76.48
72118;BME280;59992;47.490;8.736;2023-03-14T10:45:35;95150.15;;;10.02;76.58
72118;BME280;59992;47.490;8.736;2023-03-14T10:48:28;95146.92;;;9.86;78.36
72118;BME280;59992;47.490;8.736;2023-03-14T10:51:25;95149.25;;;10.09;77.18
72118;BME280;59992;47.490;8.736;2023-03-14T10:54:20;95153.83;;;10.06;76.47
72118;BME280;59992;47.490;8.736;2023-03-14T10:57:08;95167.66;;;10.17;77.41
72118;BME280;59992;47.490;8.736;2023-03-14T10:59:57;95169.47;;;10.07;76.09
72118;BME280;59992;47.490;8.736;2023-03-14T11:02:58;95178.59;;;9.88;77.21
72118;BME280;59992;47.490;8.736;2023-03-14T11:05:51;95182.06;;;10.01;76.62
72118;BME280;59992;47.490;8.736;2023-03-14T11:08:47;95183.00;;;9.95;76.71
72118;BME280;59992;47.490;8.736;2023-03-14T11:11:40;95195.86;;;9.96;76.69
72118;BME280;59992;47.490;8.736;2023-03-14T11:14:38;95206.79;;;9.89;77.13
72118;BME280;59992;47.490;8.736;2023-03-14T11:17:34;95210.83;;;9.70;78.50
72118;BME280;59992;47.490;8.736;2023-03-14T11:20:35;95223.61;;;9.56;78.91
72118;BME280;59992;47.490;8.736;2023-03-14T11:23:25;95230.96;;;9.53;80.09
72118;BME280;59992;47.490;8.736;2023-03-14T11:26:26;95242.72;;;9.40;81.13
72118;BME280;59992;47.490;8.736;2023-03-14T11:29:20;95255.52;;;9.30;80.96
72118;BME280;59992;47.490;8.736;2023-03-14T11:32:17;95266.38;;;9.21;81.83
72118;BME280;59992;47.490;8.736;2023-03-14T11:35:17;95264.80;;;9.15;81.67
72118;BME280;59992;47.490;8.736;2023-03-14T11:38:15;95266.03;;;8.98;83.09
72118;BME280;59992;47.490;8.736;2023-03-14T11:41:08;95278.80;;;8.94;83.07
72118;BME280;59992;47.490;8.736;2023-03-14T11:43:59;95296.12;;;8.71;83.01
72118;BME280;59992;47.490;8.736;2023-03-14T11:46:52;95299.38;;;8.20;83.86
72118;BME280;59992;47.490;8.736;2023-03-14T11:49:47;95304.27;;;8.07;84.56
72118;BME280;59992;47.490;8.736;2023-03-14T11:52:41;95307.11;;;8.02;84.37
72118;BME280;59992;47.490;8.736;2023-03-14T11:55:33;95306.83;;;7.83;84.67
72118;BME280;59992;47.490;8.736;2023-03-14T11:58:26;95309.58;;;7.70;86.31
72118;BME280;59992;47.490;8.736;2023-03-14T12:01:17;95313.90;;;7.76;85.86
72118;BME280;59992;47.490;8.736;2023-03-14T12:04:11;95320.23;;;7.76;85.72
72118;BME280;59992;47.490;8.736;2023-03-14T12:07:08;95322.36;;;7.84;83.98
72118;BME280;59992;47.490;8.736;2023-03-14T12:10:01;95333.81;;;7.82;86.46
72118;BME280;59992;47.490;8.736;2023-03-14T12:12:50;95341.27;;;7.84;86.20
72118;BME280;59992;47.490;8.736;2023-03-14T12:15:40;95348.13;;;7.82;86.45
72118;BME280;59992;47.490;8.736;2023-03-14T12:18:32;95344.73;;;7.82;85.72
72118;BME280;59992;47.490;8.736;2023-03-14T12:21:21;95356.54;;;7.93;84.01
72118;BME280;59992;47.490;8.736;2023-03-14T12:24:19;95364.02;;;7.95;84.83
72118;BME280;59992;47.490;8.736;2023-03-14T12:27:13;95368.91;;;7.96;84.60
72118;BME280;59992;47.490;8.736;2023-03-14T12:30:27;95381.72;;;7.93;84.71
72118;BME280;59992;47.490;8.736;2023-03-14T12:33:31;95379.41;;;8.01;82.90
72118;BME280;59992;47.490;8.736;2023-03-14T12:36:51;95381.39;;;8.04;84.15
72118;BME280;59992;47.490;8.736;2023-03-14T12:39:57;95384.48;;;8.23;84.63
72118;BME280;59992;47.490;8.736;2023-03-14T12:42:58;95386.88;;;8.45;84.48
72118;BME280;59992;47.490;8.736;2023-03-14T12:46:07;95376.70;;;8.50;82.00
72118;BME280;59992;47.490;8.736;2023-03-14T12:49:04;95402.84;;;8.75;80.60
72118;BME280;59992;47.490;8.736;2023-03-14T12:51:59;95406.94;;;8.86;79.82
72118;BME280;59992;47.490;8.736;2023-03-14T12:54:52;95418.14;;;9.10;79.48
72118;BME280;59992;47.490;8.736;2023-03-14T12:57:48;95416.54;;;9.12;79.24
72118;BME280;59992;47.490;8.736;2023-03-14T13:00:51;95433.54;;;9.24;77.35
72118;BME280;59992;47.490;8.736;2023-03-14T13:03:46;95438.21;;;9.24;77.54
72118;BME280;59992;47.490;8.736;2023-03-14T13:06:50;95452.34;;;9.27;77.68
72118;BME280;59992;47.490;8.736;2023-03-14T13:10:02;95470.09;;;9.50;76.80
72118;BME280;59992;47.490;8.736;2023-03-14T13:12:55;95479.61;;;9.46;75.43
72118;BME280;59992;47.490;8.736;2023-03-14T13:15:45;95488.38;;;9.45;74.76
72118;BME280;59992;47.490;8.736;2023-03-14T13:21:27;95500.09;;;9.57;73.78
72118;BME280;59992;47.490;8.736;2023-03-14T13:24:24;95502.73;;;9.48;72.46
72118;BME280;59992;47.490;8.736;2023-03-14T13:27:17;95512.42;;;9.52;71.91
72118;BME280;59992;47.490;8.736;2023-03-14T13:30:21;95521.55;;;9.62;71.06
72118;BME280;59992;47.490;8.736;2023-03-14T13:33:15;95527.98;;;9.64;68.97
72118;BME280;59992;47.490;8.736;2023-03-14T13:36:05;95543.41;;;9.68;68.31
72118;BME280;59992;47.490;8.736;2023-03-14T13:38:57;95550.20;;;9.51;68.20
72118;BME280;59992;47.490;8.736;2023-03-14T13:41:47;95575.44;;;9.42;68.77
72118;BME280;59992;47.490;8.736;2023-03-14T13:44:37;95593.70;;;9.28;68.64
72118;BME280;59992;47.490;8.736;2023-03-14T13:47:27;95584.13;;;8.86;66.41
72118;BME280;59992;47.490;8.736;2023-03-14T13:50:17;95595.57;;;8.59;68.49
72118;BME280;59992;47.490;8.736;2023-03-14T13:53:11;95583.06;;;8.46;67.46
72118;BME280;59992;47.490;8.736;2023-03-14T13:56:03;95588.41;;;8.45;67.99
72118;BME280;59992;47.490;8.736;2023-03-14T13:58:51;95594.91;;;8.47;67.35
72118;BME280;59992;47.490;8.736;2023-03-14T14:01:46;95602.84;;;8.52;67.77
72118;BME280;59992;47.490;8.736;2023-03-14T14:04:37;95600.27;;;8.64;68.25
72118;BME280;59992;47.490;8.736;2023-03-14T14:07:25;95603.85;;;8.70;67.25
72118;BME280;59992;47.490;8.736;2023-03-14T14:10:14;95608.72;;;8.79;66.38
72118;BME280;59992;47.490;8.736;2023-03-14T14:13:03;95611.17;;;8.90;67.32
72118;BME280;59992;47.490;8.736;2023-03-14T14:15:54;95619.66;;;8.94;66.02
72118;BME280;59992;47.490;8.736;2023-03-14T14:18:44;95623.37;;;8.98;65.75
72118;BME280;59992;47.490;8.736;2023-03-14T14:21:32;95630.19;;;8.83;66.13
72118;BME280;59992;47.490;8.736;2023-03-14T14:24:22;95628.13;;;8.96;66.11
72118;BME280;59992;47.490;8.736;2023-03-14T14:27:13;95624.65;;;8.94;65.28
72118;BME280;59992;47.490;8.736;2023-03-14T14:30:21;95626.00;;;8.94;64.64
72118;BME280;59992;47.490;8.736;2023-03-14T14:33:18;95620.20;;;8.97;65.01
72118;BME280;59992;47.490;8.736;2023-03-14T14:36:15;95617.95;;;9.02;65.86
72118;BME280;59992;47.490;8.736;2023-03-14T14:39:09;95622.38;;;9.15;65.43
72118;BME280;59992;47.490;8.736;2023-03-14T14:42:00;95625.41;;;9.18;63.92
72118;BME280;59992;47.490;8.736;2023-03-14T14:44:50;95623.52;;;9.18;62.50
72118;BME280;59992;47.490;8.736;2023-03-14T14:47:49;95631.02;;;9.23;62.65
72118;BME280;59992;47.490;8.736;2023-03-14T14:50:48;95627.55;;;9.28;62.24
72118;BME280;59992;47.490;8.736;2023-03-14T14:53:39;95639.38;;;9.46;62.26
72118;BME280;59992;47.490;8.736;2023-03-14T14:56:28;95652.05;;;9.68;62.44
72118;BME280;59992;47.490;8.736;2023-03-14T14:59:23;95650.48;;;9.81;61.72
72118;BME280;59992;47.490;8.736;2023-03-14T15:02:27;95643.86;;;10.12;60.89
72118;BME280;59992;47.490;8.736;2023-03-14T15:05:17;95648.56;;;10.32;58.75
72118;BME280;59992;47.490;8.736;2023-03-14T15:08:09;95664.05;;;10.40;57.79
72118;BME280;59992;47.490;8.736;2023-03-14T15:10:57;95668.67;;;10.38;57.08
72118;BME280;59992;47.490;8.736;2023-03-14T15:13:45;95667.25;;;10.29;57.49
72118;BME280;59992;47.490;8.736;2023-03-14T15:16:34;95673.76;;;10.27;57.05
72118;BME280;59992;47.490;8.736;2023-03-14T15:19:25;95677.23;;;10.15;56.88